Latest Weather Observations for Flinders Island Airport

IDT60801

Issued at 1:33 am EDT Wednesday 1 March 2017 (issued every 30 minutes, with the page automatically refreshed every 10 minutes)

About weather observations | Map of weather stations | Latest weather observations for TAS | Other Formats
Station Details ID: 099005 Name: FLINDERS ISLAND AIRPORT Lat: -40.09 Lon: 148.00 Height: 9.0 m
Data from the previous 72 hours. | See also: Recent months at Flinders Island Airport
Date/Time
EDT
Temp
°C
App
Temp
°C
Dew
Point
°C
Rel
Hum
%
Delta-T
°C
Wind Press
QNH
hPa
Press
MSL
hPa
Rain since
9am
mm
Dir  Spd
km/h
Gust
km/h
Spd
kts
Gust
kts
01/01:30am 21.4 21.6 19.3 88 1.3 NE 17 26 9 14 1022.2 1022.1 0.0
01/01:00am 21.5 21.7 19.4 88 1.3 ENE 17 28 9 15 1022.5 1022.4 0.0
01/12:30am 21.6 21.3 19.5 88 1.3 ENE 20 32 11 17 1022.6 1022.5 0.0
01/12:00am 21.7 22.4 19.6 88 1.3 NE 15 24 8 13 1022.7 1022.6 0.0
 
Date/Time
EDT
Temp
°C
App
Temp
°C
Dew
Point
°C
Rel
Hum
%
Delta-T
°C
Wind Press
QNH
hPa
Press
MSL
hPa
Rain since
9am
mm
Dir  Spd
km/h
Gust
km/h
Spd
kts
Gust
kts
28/11:30pm 21.6 22.2 19.5 88 1.3 ENE 15 19 8 10 1022.8 1022.7 0.0
28/11:00pm 21.6 22.1 19.3 87 1.5 ENE 15 24 8 13 1023.0 1022.9 0.0
28/10:30pm 21.5 21.6 19.1 86 1.5 ENE 17 26 9 14 1022.9 1022.8 0.0
28/10:00pm 21.9 22.5 19.5 86 1.5 ENE 15 24 8 13 1023.0 1022.9 0.0
28/09:30pm 21.8 22.4 19.4 86 1.5 ENE 15 22 8 12 1022.9 1022.8 0.0
28/09:00pm 21.8 21.5 19.2 85 1.6 ENE 19 30 10 16 1022.5 1022.4 0.0
28/08:30pm 21.8 21.3 19.0 84 1.8 ENE 20 28 11 15 1022.3 1022.2 0.0
28/08:00pm 22.0 22.3 18.8 82 2.0 NE 15 26 8 14 1022.2 1022.1 0.0
28/07:46pm 22.1 21.6 18.7 81 2.1 NE 19 28 10 15 1022.0 1021.9 0.0
28/07:30pm 22.4 21.3 18.6 79 2.4 NE 22 28 12 15 1022.0 1021.9 0.0
28/07:00pm 23.0 21.1 18.5 76 2.8 NE 26 33 14 18 1021.9 1021.8 0.0
28/06:30pm 23.4 22.7 18.7 75 3.0 NE 20 28 11 15 1021.9 1021.8 0.0
28/06:00pm 23.9 22.9 18.8 73 3.2 NE 22 30 12 16 1021.7 1021.6 0.0
28/05:30pm 24.0 22.4 18.4 71 3.5 NNE 24 32 13 17 1021.6 1021.5 0.0
28/05:00pm 24.8 23.3 18.5 68 4.0 NE 24 32 13 17 1021.7 1021.6 0.0
28/04:30pm 24.5 22.0 18.0 67 4.1 NE 28 35 15 19 1021.7 1021.6 0.0
28/04:00pm 24.9 23.0 18.6 68 4.0 NE 26 33 14 18 1022.0 1021.9 0.0
28/03:30pm 24.6 22.9 18.1 67 4.1 NE 24 35 13 19 1022.2 1022.1 0.0
28/03:00pm 24.3 22.9 18.0 68 3.9 NE 22 30 12 16 1022.4 1022.3 0.0
28/02:30pm 24.9 23.4 18.6 68 4.0 NE 24 32 13 17 1022.5 1022.4 0.0
28/02:00pm 24.4 22.7 18.1 68 3.9 NE 24 32 13 17 1022.7 1022.6 0.0
28/01:30pm 24.5 22.8 18.2 68 4.0 NE 24 32 13 17 1022.8 1022.7 0.0
28/01:00pm 25.1 23.0 19.0 69 3.9 NE 28 35 15 19 1022.9 1022.8 0.0
28/12:30pm 24.8 22.6 18.7 69 3.9 NE 28 35 15 19 1023.0 1022.9 0.0
28/12:00pm 23.6 21.3 18.5 73 3.2 NE 28 37 15 20 1023.2 1023.1 0.0
28/11:30am 23.8 21.1 18.4 72 3.4 NE 30 41 16 22 1023.3 1023.2 0.0
28/11:00am 24.8 22.8 19.2 71 3.6 NE 28 37 15 20 1023.3 1023.2 0.0
28/10:30am 24.6 22.1 19.7 74 3.2 NE 32 39 17 21 1023.4 1023.3 0.0
28/10:00am 22.6 21.1 18.6 78 2.5 ENE 24 33 13 18 1023.5 1023.4 0.0
28/09:30am 22.3 20.9 18.9 81 2.1 NE 24 35 13 19 1023.5 1023.4 0.0
28/09:27am 22.1 21.0 18.7 81 2.1 NE 22 35 12 19 1023.5 1023.4 0.0
28/09:11am 21.9 21.5 18.9 83 1.9 ENE 19 28 10 15 1023.6 1023.5 0.0
28/09:00am 21.7 21.7 18.9 84 1.8 ENE 17 24 9 13 1023.6 1023.5 0.0
28/08:45am 21.4 21.2 18.6 84 1.8 ENE 17 28 9 15 1023.6 1023.5 0.0
28/08:35am 21.1 21.0 18.7 86 1.5 ENE 17 24 9 13 1023.6 1023.5 0.0
28/08:30am 21.0 20.8 18.6 86 1.5 ENE 17 24 9 13 1023.5 1023.4 0.0
28/08:10am 20.7 20.9 18.5 87 1.4 ENE 15 24 8 13 1023.7 1023.6 0.0
28/08:00am 20.7 21.3 18.6 88 1.3 ENE 13 17 7 9 1023.6 1023.5 0.0
28/07:49am 20.3 20.3 18.2 88 1.3 ENE 15 26 8 14 1023.6 1023.5 0.0
28/07:48am 20.3 20.3 18.2 88 1.3 ENE 15 26 8 14 1023.5 1023.4 0.0
28/07:30am 20.2 20.6 18.1 88 1.3 ENE 13 19 7 10 1023.5 1023.4 0.0
28/07:27am 20.2 20.2 18.1 88 1.3 ENE 15 24 8 13 1023.5 1023.4 0.0
28/07:00am 19.9 20.2 17.9 88 1.2 ENE 13 20 7 11 1023.4 1023.3 0.0
28/06:30am 19.9 20.2 17.9 88 1.2 ENE 13 17 7 9 1023.2 1023.1 0.0
28/06:00am 19.9 19.7 17.7 87 1.3 ENE 15 26 8 14 1023.2 1023.1 0.0
28/05:30am 19.8 19.7 17.8 88 1.2 ENE 15 20 8 11 1023.1 1023.0 0.0
28/05:00am 19.5 20.0 17.5 88 1.2 ENE 11 15 6 8 1023.1 1023.0 0.0
28/04:54am 19.6 19.8 17.6 88 1.2 ENE 13 19 7 10 1023.0 1022.9 0.0
28/04:30am 19.5 19.7 17.6 89 1.2 ENE 13 19 7 10 1023.1 1023.0 0.0
28/04:00am 19.3 19.0 17.4 89 1.2 ENE 15 24 8 13 1023.4 1023.3 0.0
28/03:54am 19.3 19.0 17.4 89 1.2 ENE 15 22 8 12 1023.4 1023.3 0.0
28/03:30am 19.1 19.1 17.2 89 1.2 ENE 13 20 7 11 1023.6 1023.5 0.0
28/03:00am 18.9 18.8 16.9 88 1.2 ENE 13 20 7 11 1024.0 1023.9 0.0
28/02:30am 19.1 18.2 16.9 87 1.3 ENE 17 26 9 14 1024.2 1024.1 0.0
28/02:00am 18.9 18.2 16.5 86 1.4 ENE 15 24 8 13 1024.4 1024.3 0.0
28/01:30am 18.9 17.9 16.5 86 1.4 ENE 17 26 9 14 1024.6 1024.5 0.0
28/01:00am 18.8 17.7 16.4 86 1.4 ENE 17 24 9 13 1024.8 1024.7 0.0
28/12:30am 18.7 17.9 16.1 85 1.5 ENE 15 20 8 11 1024.9 1024.8 0.0
28/12:00am 18.4 16.6 15.6 84 1.6 ENE 19 26 10 14 1025.1 1025.0 0.0
 
Date/Time
EDT
Temp
°C
App
Temp
°C
Dew
Point
°C
Rel
Hum
%
Delta-T
°C
Wind Press
QNH
hPa
Press
MSL
hPa
Rain since
9am
mm
Dir  Spd
km/h
Gust
km/h
Spd
kts
Gust
kts
27/11:30pm 18.1 16.1 15.4 84 1.6 ENE 20 28 11 15 1025.4 1025.3 0.0
27/11:00pm 17.9 15.9 15.0 83 1.7 ENE 19 26 10 14 1025.6 1025.5 0.0
27/10:30pm 17.8 16.2 14.9 83 1.7 ENE 17 28 9 15 1025.7 1025.6 0.0
27/10:00pm 17.8 17.1 14.3 80 2.0 E 11 17 6 9 1025.9 1025.8 0.0
27/09:30pm 17.7 16.4 13.8 78 2.2 E 13 15 7 8 1025.7 1025.6 0.0
27/09:00pm 17.8 16.8 13.5 76 2.4 E 11 17 6 9 1025.6 1025.5 0.0
27/08:30pm 18.2 17.2 13.5 74 2.7 ENE 11 17 6 9 1025.5 1025.4 0.0
27/08:00pm 18.8 17.2 13.9 73 2.8 ENE 15 22 8 12 1025.3 1025.2 0.0
27/07:30pm 19.3 18.1 13.9 71 3.1 ENE 13 20 7 11 1025.0 1024.9 0.0
27/07:00pm 19.6 17.2 13.8 69 3.3 ENE 19 28 10 15 1024.8 1024.7 0.0
27/06:30pm 20.2 17.6 13.9 67 3.6 ENE 20 30 11 16 1024.7 1024.6 0.0
27/06:00pm 20.3 17.1 13.0 63 4.1 ENE 22 30 12 16 1024.6 1024.5 0.0
27/05:30pm 21.8 18.5 13.9 61 4.6 ENE 24 33 13 18 1024.6 1024.5 0.0
27/05:00pm 22.3 19.0 13.9 59 4.9 E 24 33 13 18 1024.7 1024.6 0.0
27/04:30pm 22.2 18.5 12.7 55 5.4 E 24 32 13 17 1024.8 1024.7 0.0
27/04:00pm 22.4 19.2 13.2 56 5.3 NE 22 30 12 16 1025.0 1024.9 0.0
27/03:30pm 22.0 18.1 13.4 58 5.0 NE 26 35 14 19 1025.3 1025.2 0.0
27/03:00pm 22.2 17.7 12.7 55 5.4 NE 28 37 15 20 1025.5 1025.4 0.0
27/02:30pm 23.1 18.2 13.8 55 5.4 NE 32 39 17 21 1025.7 1025.6 0.0
27/02:00pm 21.9 17.4 13.8 60 4.7 NE 30 37 16 20 1026.0 1025.9 0.0
27/01:30pm 22.3 18.3 14.2 60 4.7 NE 28 37 15 20 1025.8 1025.7 0.0
27/01:00pm 22.0 17.5 13.9 60 4.7 NE 30 39 16 21 1025.9 1025.8 0.0
27/12:30pm 22.4 17.7 14.3 60 4.7 NE 32 41 17 22 1025.9 1025.8 0.0
27/12:00pm 22.4 17.9 15.0 63 4.4 NE 32 44 17 24 1026.0 1025.9 0.0
27/11:30am 22.0 17.3 14.9 64 4.2 NE 33 44 18 24 1026.3 1026.2 0.0
27/11:00am 21.3 17.0 14.5 65 4.0 ENE 30 41 16 22 1026.4 1026.3 0.0
27/10:30am 21.2 16.7 14.8 67 3.8 ENE 32 41 17 22 1026.4 1026.3 0.0
27/10:00am 20.5 16.3 14.6 69 3.4 NE 30 41 16 22 1026.5 1026.4 0.0
27/09:30am 21.2 17.2 15.1 68 3.6 ENE 30 39 16 21 1026.2 1026.1 0.0
27/09:00am 20.0 17.8 15.0 73 2.9 ENE 20 30 11 16 1026.3 1026.2 0.0
27/08:30am 19.2 17.3 15.1 77 2.4 ENE 19 28 10 15 1026.3 1026.2 0.0
27/08:00am 18.7 17.6 15.4 81 1.9 ENE 15 24 8 13 1026.0 1025.9 0.0
27/07:30am 17.2 17.6 15.2 88 1.2 NE 7 13 4 7 1025.8 1025.7 0.0
27/07:00am 13.7 14.2 11.6 87 1.1 CALM 0 0 0 0 1025.5 1025.4 0.0
27/06:30am 13.6 13.9 11.0 84 1.4 CALM 0 0 0 0 1025.2 1025.1 0.0
27/06:00am 13.7 13.9 10.5 81 1.7 CALM 0 0 0 0 1025.1 1025.0 0.0
27/05:30am 14.5 14.8 10.9 79 1.9 CALM 0 0 0 0 1024.9 1024.8 0.0
27/05:00am 14.8 14.5 10.2 74 2.4 ENE 2 9 1 5 1024.9 1024.8 0.0
27/04:30am 16.1 14.8 11.3 73 2.6 ENE 9 11 5 6 1025.0 1024.9 0.0
27/04:00am 16.5 14.2 11.6 73 2.6 ENE 15 19 8 10 1025.0 1024.9 0.0
27/03:30am 16.4 14.0 11.3 72 2.7 ENE 15 19 8 10 1025.2 1025.1 0.0
27/03:00am 15.9 14.0 10.4 70 2.9 E 11 15 6 8 1025.4 1025.3 0.0
27/02:30am 16.3 13.6 10.4 68 3.1 ENE 15 20 8 11 1025.6 1025.5 0.0
27/02:00am 16.0 13.7 10.3 69 3.0 ENE 13 17 7 9 1025.8 1025.7 0.0
27/01:30am 15.3 12.9 10.1 71 2.7 ENE 13 17 7 9 1026.0 1025.9 0.0
27/01:00am 15.6 13.2 10.2 70 2.8 ENE 13 19 7 10 1026.1 1026.0 0.0
27/12:30am 15.0 12.9 9.6 70 2.8 E 11 17 6 9 1026.1 1026.0 0.0
27/12:00am 16.0 13.7 10.3 69 3.0 ENE 13 22 7 12 1026.1 1026.0 0.0
 
Date/Time
EDT
Temp
°C
App
Temp
°C
Dew
Point
°C
Rel
Hum
%
Delta-T
°C
Wind Press
QNH
hPa
Press
MSL
hPa
Rain since
9am
mm
Dir  Spd
km/h
Gust
km/h
Spd
kts
Gust
kts
26/11:30pm 15.3 13.7 10.3 72 2.6 E 9 13 5 7 1026.2 1026.1 0.0
26/11:00pm 15.4 13.5 10.4 72 2.6 ENE 11 20 6 11 1026.4 1026.3 0.0
26/10:30pm 15.0 13.8 10.4 74 2.4 E 7 9 4 5 1026.4 1026.3 0.0
26/10:00pm 15.1 13.5 10.1 72 2.6 ESE 9 13 5 7 1026.3 1026.2 0.0
26/09:30pm 16.1 14.2 10.6 70 2.9 E 11 17 6 9 1026.3 1026.2 0.0
26/09:00pm 16.1 13.4 10.4 69 3.0 ENE 15 20 8 11 1026.0 1025.9 0.0
26/08:30pm 15.7 13.2 9.8 68 3.1 ENE 13 17 7 9 1025.8 1025.7 0.0
26/08:00pm 16.5 13.6 9.7 64 3.5 ENE 15 20 8 11 1025.7 1025.6 0.0
26/07:30pm 17.7 14.4 9.6 59 4.3 ENE 17 26 9 14 1025.5 1025.4 0.0
26/07:00pm 18.7 14.1 9.8 56 4.7 ENE 24 32 13 17 1025.3 1025.2 0.0
26/06:30pm 19.3 15.2 10.0 55 5.0 ENE 22 32 12 17 1025.1 1025.0 0.0
26/06:00pm 19.9 15.3 9.8 52 5.4 ENE 24 32 13 17 1025.0 1024.9 0.0
26/05:30pm 20.7 15.9 8.7 46 6.3 ENE 24 32 13 17 1024.9 1024.8 0.0
26/05:00pm 20.8 16.7 8.8 46 6.3 ENE 20 30 11 16 1024.9 1024.8 0.0
26/04:30pm 21.0 16.5 8.6 45 6.5 E 22 30 12 16 1025.0 1024.9 0.0
26/04:00pm 20.7 16.1 9.6 49 5.9 ENE 24 33 13 18 1025.2 1025.1 0.0
26/03:30pm 20.3 16.2 10.1 52 5.5 ENE 22 30 12 16 1025.3 1025.2 0.0
26/03:00pm 20.3 16.5 9.8 51 5.6 ENE 20 33 11 18 1025.4 1025.3 0.0
26/02:30pm 21.4 18.1 10.9 51 5.8 ENE 19 30 10 16 1025.7 1025.6 0.0
26/02:00pm 20.9 16.6 9.2 47 6.2 E 22 33 12 18 1025.9 1025.8 0.0
26/01:30pm 21.2 17.4 9.8 48 6.1 E 20 32 11 17 1025.8 1025.7 0.0
26/01:00pm 21.3 17.6 9.5 47 6.3 ENE 19 32 10 17 1026.1 1026.0 0.0
26/12:30pm 21.0 16.5 9.9 49 6.0 ENE 24 32 13 17 1026.3 1026.2 0.0
26/12:00pm 20.1 15.2 8.4 47 6.1 ENE 24 35 13 19 1026.5 1026.4 0.0
26/11:30am 20.5 16.4 10.0 51 5.6 NE 22 30 12 16 1026.6 1026.5 0.0
26/11:00am 20.1 16.3 9.9 52 5.4 ENE 20 30 11 16 1026.6 1026.5 0.0
26/10:30am 19.2 15.4 9.7 54 5.0 ENE 20 30 11 16 1026.6 1026.5 0.0
26/10:00am 19.2 15.5 10.2 56 4.8 ENE 20 30 11 16 1026.6 1026.5 0.0
26/09:30am 18.6 15.0 9.7 56 4.7 E 19 28 10 15 1026.8 1026.7 0.0
26/09:00am 18.0 15.3 10.4 61 4.0 E 15 24 8 13 1026.6 1026.5 0.0
26/08:30am 16.8 15.6 10.2 65 3.5 S 7 11 4 6 1026.3 1026.2 0.0
26/08:00am 14.4 13.3 9.8 74 2.4 SW 6 9 3 5 1026.1 1026.0 0.0
26/07:30am 13.3 11.0 9.0 75 2.2 E 11 17 6 9 1025.9 1025.8 0.0
26/07:00am 12.7 10.3 8.6 76 2.0 E 11 19 6 10 1026.0 1025.9 0.0
26/06:30am 11.2 9.6 8.1 81 1.5 ESE 6 13 3 7 1025.7 1025.6 0.0
26/06:00am 9.6 7.4 6.1 79 1.6 ENE 7 13 4 7 1024.9 1024.8 0.0
26/05:30am 10.1 7.2 6.4 78 1.7 E 11 13 6 7 1024.9 1024.8 0.0
26/05:00am 12.0 9.3 7.5 74 2.2 SE 11 13 6 7 1025.2 1025.1 0.0
26/04:30am 13.5 11.4 8.4 71 2.5 SE 9 11 5 6 1025.0 1024.9 0.0
26/04:00am 13.1 11.0 8.4 73 2.3 E 9 15 5 8 1024.9 1024.8 0.0
26/03:30am 13.6 11.2 8.7 72 2.5 E 11 17 6 9 1025.2 1025.1 0.0
26/03:00am 13.7 11.4 9.0 73 2.4 E 11 15 6 8 1025.5 1025.4 0.0
26/02:30am 13.4 11.0 8.5 72 2.4 E 11 15 6 8 1025.7 1025.6 0.0
26/02:00am 13.8 11.0 8.6 71 2.6 E 13 13 7 7 1026.0 1025.9 0.0

Other Formats:

Comma delimited format used in spreadsheet applications
http://www.bom.gov.au/fwo/IDT60801/IDT60801.94980.axf

JavaScript Object Notation format (JSON) in row-major order
http://www.bom.gov.au/fwo/IDT60801/IDT60801.94980.json